メインページ
METAR-TAF:

METAR-TAF

空港 :

テグシガルパ, ホンジュラス

トンコンティン国際空港

緯度: 14-03N, 経度: 087-13W, 海抜: 994m

現時点の気象観測

当レポートは1時間23分前の20:00(UTC)に作成
の風 8kt
気温 28°C
湿度 55%
気圧 1014 hPa
視程10km以上
高度3000ftの千切れ雲あり, 塔状積雲.

METAR: MHTG 202000Z 01008KT 9999 BKN030TCU 28/18 Q1014 A2994 NOSIG

時間: 15:23 (21:23 UTC)

予報

当レポートは4時間58分前の16:25(UTC)に作成
予報は20日の 18時(UTC)から 21日の 18時(UTC)まで有効
の風 12kt
視程10km以上
高度2800ftの千切れ雲あり
20日の 21時(UTC)から 21日の 01時(UTC)まで一時的に
視程: 6000m
高度2800ftの千切れ雲あり, 塔状積雲.
小雨
21日の 01時(UTC)から 21日の 03時(UTC)まで徐々に
視程10km以上
高度2600ftの雲は散在している
高度9000ftの雲は散在している
21日の 09時(UTC)から 21日の 11時(UTC)まで徐々に
の風 kt
視程: 8000m
高度1000ftの雲はほとんどない
高度2400ftの千切れ雲あり

TAF: MHTG 201625Z 2018/2118 01012KT 9999 BKN028 TX27/2020Z TN18/2112Z TEMPO 2021/2101 6000 -RA BKN028TCU BECMG 2101/2103 9999 NSW SCT026 SCT090 BECMG 2109/2111 00000KT 8000 FEW010 BKN024

4,000以上の空港の気象観測と天気予報(METAR報とTAF報)

利用可能な観測所は地図上に黄色い丸と赤い丸で示す。

丸の上にカーソルを重ねると観測所名を参照できる。

次にクリックすると気象観測と天気予報を参照できる。

マップの切り替え:黒色「×」印の緑ボタンをクリックして拡大、「-」印の緑ボタンをクリックして縮小、緑色の三角印をクリックして隣りの地図に切り替え


METAR-TAF: